createdAt,value
2022-12-24T00:02:13.253Z,2.03
2022-12-24T00:07:16.021Z,2.06
2022-12-24T00:12:18.734Z,2.04
2022-12-24T00:17:21.688Z,1.97
2022-12-24T00:22:24.717Z,1.86
2022-12-24T00:27:27.465Z,1.74
2022-12-24T00:32:30.252Z,1.53
2022-12-24T00:37:32.971Z,1.27
2022-12-24T00:42:35.703Z,1.00
2022-12-24T00:47:38.506Z,0.80
2022-12-24T00:52:41.310Z,0.63
2022-12-24T00:57:44.015Z,0.42
2022-12-24T01:02:47.108Z,0.16
2022-12-24T01:07:50.109Z,-0.05
2022-12-24T01:12:52.848Z,-0.22
2022-12-24T01:17:55.676Z,-0.46
2022-12-24T01:22:58.493Z,-0.70
2022-12-24T01:28:01.176Z,-0.88
2022-12-24T01:33:03.926Z,-1.03
2022-12-24T01:38:06.654Z,-1.19
2022-12-24T01:43:23.934Z,-1.30
2022-12-24T01:48:44.232Z,-1.38
2022-12-24T01:53:51.557Z,-1.47
2022-12-24T01:59:00.371Z,-1.54
2022-12-24T02:04:12.268Z,-1.60
2022-12-24T02:09:15.457Z,-1.64
2022-12-24T02:14:18.365Z,-1.72
2022-12-24T02:19:58.785Z,-1.71
2022-12-24T02:25:04.329Z,-1.66
2022-12-24T02:30:15.187Z,-1.66
2022-12-24T02:35:24.177Z,-1.68
2022-12-24T02:40:38.079Z,-1.67
2022-12-24T02:45:45.988Z,-1.70
2022-12-24T02:51:06.931Z,-1.76
2022-12-24T02:56:47.085Z,-1.84
2022-12-24T03:02:28.772Z,-1.90
2022-12-24T03:07:59.567Z,-2.01
2022-12-24T03:13:10.303Z,-2.13
2022-12-24T03:18:17.385Z,-2.25
2022-12-24T03:23:20.395Z,-2.30
2022-12-24T03:28:27.220Z,-2.36
2022-12-24T03:33:30.320Z,-2.48
2022-12-24T03:38:33.844Z,-2.60
2022-12-24T03:43:36.607Z,-2.62
2022-12-24T03:48:39.406Z,-2.67
2022-12-24T03:53:42.127Z,-2.76
2022-12-24T03:58:44.958Z,-2.83
2022-12-24T04:03:47.711Z,-2.85
2022-12-24T04:08:50.421Z,-2.86
2022-12-24T04:13:53.124Z,-2.89
2022-12-24T04:18:55.913Z,-2.90
2022-12-24T04:23:58.596Z,-2.92
2022-12-24T04:29:01.283Z,-2.97
2022-12-24T04:34:04.024Z,-3.02
2022-12-24T04:39:06.736Z,-3.06
2022-12-24T04:44:10.615Z,-3.06
2022-12-24T04:49:13.335Z,-3.06
2022-12-24T04:54:16.161Z,-3.07
2022-12-24T04:59:18.867Z,-3.07
2022-12-24T05:04:21.601Z,-3.10
2022-12-24T05:09:24.356Z,-3.16
2022-12-24T05:14:27.066Z,-3.26
2022-12-24T05:19:29.831Z,-3.37
2022-12-24T05:24:51.045Z,-3.44
2022-12-24T05:29:53.783Z,-3.55
2022-12-24T05:34:56.544Z,-3.66
2022-12-24T05:39:59.339Z,-3.70
2022-12-24T05:45:02.127Z,-3.75
2022-12-24T05:50:05.635Z,-3.79
2022-12-24T05:55:09.320Z,-3.82
2022-12-24T06:00:12.306Z,-3.84
2022-12-24T06:05:15.184Z,-3.87
2022-12-24T06:10:18.082Z,-3.94
2022-12-24T06:15:24.069Z,-4.02
2022-12-24T06:20:27.105Z,-4.11
2022-12-24T06:25:29.840Z,-4.14
2022-12-24T06:30:32.663Z,-4.13
2022-12-24T06:35:35.390Z,-4.12
2022-12-24T06:40:39.648Z,-4.05
2022-12-24T06:45:47.020Z,-3.95
2022-12-24T06:50:49.703Z,-3.85
2022-12-24T06:55:52.350Z,-3.81
2022-12-24T07:00:55.080Z,-3.83
2022-12-24T07:05:58.481Z,-3.83
2022-12-24T07:11:01.231Z,-3.80
2022-12-24T07:16:05.325Z,-3.76
2022-12-24T07:21:08.227Z,-3.68
2022-12-24T07:26:11.312Z,-3.57
2022-12-24T07:31:14.532Z,-3.45
2022-12-24T07:36:22.172Z,-3.30
2022-12-24T07:41:25.198Z,-3.22
2022-12-24T07:46:27.963Z,-3.23
2022-12-24T07:51:30.800Z,-3.28
2022-12-24T07:56:33.655Z,-3.35
2022-12-24T08:01:36.445Z,-3.38
2022-12-24T08:06:39.423Z,-3.31
2022-12-24T08:11:47.953Z,-3.20
2022-12-24T08:16:54.391Z,-3.12
2022-12-24T08:21:57.106Z,-3.06
2022-12-24T08:26:59.894Z,-2.98
2022-12-24T08:32:02.705Z,-2.91
2022-12-24T08:37:05.658Z,-2.81
2022-12-24T08:42:08.470Z,-2.73
2022-12-24T08:47:11.370Z,-2.69
2022-12-24T08:52:14.119Z,-2.61
2022-12-24T08:57:16.830Z,-2.46
2022-12-24T09:02:20.440Z,-2.35
2022-12-24T09:07:23.439Z,-2.28
2022-12-24T09:12:26.170Z,-2.15
2022-12-24T09:17:28.891Z,-1.98
2022-12-24T09:22:31.593Z,-1.81
2022-12-24T09:27:34.788Z,-1.68
2022-12-24T09:32:37.432Z,-1.63
2022-12-24T09:37:40.212Z,-1.49
2022-12-24T09:42:52.053Z,-1.37
2022-12-24T09:48:04.780Z,-1.25
2022-12-24T09:53:20.336Z,-1.18
2022-12-24T09:58:29.555Z,-1.07
2022-12-24T10:03:32.776Z,-0.99
2022-12-24T10:08:44.012Z,-0.97
2022-12-24T10:14:03.857Z,-0.91
2022-12-24T10:19:33.354Z,-0.79
2022-12-24T10:24:50.930Z,-0.67
2022-12-24T10:30:02.310Z,-0.57
2022-12-24T10:35:14.393Z,-0.49
2022-12-24T10:40:23.419Z,-0.39
2022-12-24T10:45:36.954Z,-0.28
2022-12-24T10:50:47.153Z,-0.22
2022-12-24T10:55:49.897Z,-0.14
2022-12-24T11:00:54.354Z,-0.06
2022-12-24T11:06:11.460Z,0.01
2022-12-24T11:11:20.381Z,0.10
2022-12-24T11:16:29.772Z,0.11
2022-12-24T11:21:38.668Z,0.10
2022-12-24T11:26:44.058Z,0.03
2022-12-24T11:31:48.668Z,0.02
2022-12-24T11:36:53.252Z,0.05
2022-12-24T11:41:56.072Z,0.05
2022-12-24T11:46:59.179Z,0.08
2022-12-24T11:52:10.762Z,0.11
2022-12-24T11:57:17.174Z,0.13
2022-12-24T12:02:36.666Z,0.12
2022-12-24T12:07:40.133Z,0.06
2022-12-24T12:12:45.388Z,0.02
2022-12-24T12:17:52.030Z,0.01
2022-12-24T12:23:14.061Z,-0.05
2022-12-24T12:28:28.903Z,-0.12
2022-12-24T12:33:41.633Z,-0.16
2022-12-24T12:38:44.618Z,-0.19
2022-12-24T12:44:06.482Z,-0.22
2022-12-24T12:49:27.096Z,-0.28
2022-12-24T12:54:50.290Z,-0.34
2022-12-24T13:00:06.118Z,-0.41
2022-12-24T13:05:34.785Z,-0.47
2022-12-24T13:10:52.094Z,-0.52
2022-12-24T13:16:13.019Z,-0.57
2022-12-24T13:21:20.483Z,-0.56
2022-12-24T13:26:23.250Z,-0.53
2022-12-24T13:31:28.172Z,-0.53
2022-12-24T13:37:09.873Z,-0.59
2022-12-24T13:42:51.254Z,-0.63
2022-12-24T13:47:54.403Z,-0.66
2022-12-24T13:52:57.194Z,-0.69
2022-12-24T13:58:04.437Z,-0.67
2022-12-24T14:03:13.443Z,-0.72
2022-12-24T14:08:22.876Z,-0.72
2022-12-24T14:13:40.789Z,-0.71
2022-12-24T14:18:58.356Z,-0.77
2022-12-24T14:24:06.386Z,-0.81
2022-12-24T14:29:26.638Z,-0.87
2022-12-24T14:34:29.551Z,-0.91
2022-12-24T14:39:35.893Z,-0.90
2022-12-24T14:44:53.328Z,-0.92
2022-12-24T14:50:21.813Z,-0.97
2022-12-24T14:55:36.014Z,-0.97
2022-12-24T15:00:39.738Z,-0.98
2022-12-24T15:05:43.418Z,-0.96
2022-12-24T15:10:54.618Z,-0.94
2022-12-24T15:15:57.652Z,-0.94
2022-12-24T15:21:04.501Z,-0.98
2022-12-24T15:26:28.807Z,-0.99
2022-12-24T15:31:32.184Z,-0.97
2022-12-24T15:36:37.177Z,-0.93
2022-12-24T15:42:01.584Z,-0.95
2022-12-24T15:47:07.370Z,-0.96
2022-12-24T15:52:14.596Z,-0.99
2022-12-24T15:57:31.722Z,-1.00
2022-12-24T16:02:45.718Z,-1.01
2022-12-24T16:08:13.553Z,-0.99
2022-12-24T16:13:30.653Z,-0.96
2022-12-24T16:18:53.846Z,-0.91
2022-12-24T16:24:06.322Z,-0.92
2022-12-24T16:29:11.669Z,-0.95
2022-12-24T16:34:15.726Z,-0.94
2022-12-24T16:39:24.636Z,-0.88
2022-12-24T16:44:27.491Z,-0.87
2022-12-24T16:49:30.901Z,-0.91
2022-12-24T16:54:33.655Z,-0.97
2022-12-24T16:59:37.227Z,-1.01
2022-12-24T17:04:39.967Z,-1.05
2022-12-24T17:09:43.451Z,-1.11
2022-12-24T17:14:46.158Z,-1.16
2022-12-24T17:19:48.870Z,-1.19
2022-12-24T17:24:51.700Z,-1.18
2022-12-24T17:29:55.645Z,-1.21
2022-12-24T17:35:00.214Z,-1.24
2022-12-24T17:40:03.476Z,-1.24
2022-12-24T17:45:06.724Z,-1.21
2022-12-24T17:50:09.582Z,-1.19
2022-12-24T17:55:12.277Z,-1.20
2022-12-24T18:00:16.037Z,-1.23
2022-12-24T18:05:18.754Z,-1.21
2022-12-24T18:10:21.536Z,-1.16
2022-12-24T18:15:24.273Z,-1.17
2022-12-24T18:20:26.995Z,-1.18
2022-12-24T18:25:29.718Z,-1.13
2022-12-24T18:30:32.474Z,-1.16
2022-12-24T18:35:35.195Z,-1.23
2022-12-24T18:40:37.940Z,-1.25
2022-12-24T18:45:41.937Z,-1.21
2022-12-24T18:50:55.379Z,-1.15
2022-12-24T18:56:08.262Z,-1.17
2022-12-24T19:01:17.954Z,-1.18
2022-12-24T19:06:21.707Z,-1.22
2022-12-24T19:11:24.493Z,-1.19
2022-12-24T19:16:28.951Z,-1.12
2022-12-24T19:21:32.451Z,-1.06
2022-12-24T19:26:35.173Z,-1.04
2022-12-24T19:31:38.065Z,-1.06
2022-12-24T19:36:40.836Z,-1.06
2022-12-24T19:41:43.527Z,-1.06
2022-12-24T19:46:46.474Z,-1.08
2022-12-24T19:51:49.603Z,-1.13
2022-12-24T19:56:53.426Z,-1.19
2022-12-24T20:01:56.358Z,-1.20
2022-12-24T20:07:00.798Z,-1.21
2022-12-24T20:12:03.909Z,-1.21
2022-12-24T20:17:06.762Z,-1.23
2022-12-24T20:22:09.533Z,-1.24
2022-12-24T20:27:12.598Z,-1.20
2022-12-24T20:32:15.361Z,-1.15
2022-12-24T20:37:18.348Z,-1.07
2022-12-24T20:42:21.130Z,-1.03
2022-12-24T20:47:24.067Z,-1.01
2022-12-24T20:52:26.916Z,-0.96
2022-12-24T20:57:35.907Z,-0.93
2022-12-24T21:02:39.504Z,-0.94
2022-12-24T21:07:43.676Z,-0.99
2022-12-24T21:12:49.325Z,-1.04
2022-12-24T21:17:52.744Z,-1.02
2022-12-24T21:23:01.319Z,-1.03
2022-12-24T21:28:04.599Z,-1.04
2022-12-24T21:33:07.479Z,-1.10
2022-12-24T21:38:10.295Z,-1.10
2022-12-24T21:43:13.193Z,-1.07
2022-12-24T21:48:34.791Z,-1.06
2022-12-24T21:53:56.628Z,-1.10
2022-12-24T21:58:59.335Z,-1.12
2022-12-24T22:04:02.074Z,-1.07
2022-12-24T22:09:24.231Z,-0.95
2022-12-24T22:14:27.564Z,-0.93
2022-12-24T22:19:30.355Z,-0.97
2022-12-24T22:24:33.087Z,-1.03
2022-12-24T22:29:35.830Z,-1.12
2022-12-24T22:34:38.590Z,-1.18
2022-12-24T22:39:41.531Z,-1.16
2022-12-24T22:44:44.313Z,-1.17
2022-12-24T22:49:48.083Z,-1.18
2022-12-24T22:54:50.800Z,-1.24
2022-12-24T22:59:53.507Z,-1.29
2022-12-24T23:04:56.399Z,-1.29
2022-12-24T23:09:59.830Z,-1.27
2022-12-24T23:15:02.549Z,-1.28
2022-12-24T23:20:06.620Z,-1.29
2022-12-24T23:25:09.683Z,-1.27
2022-12-24T23:30:12.660Z,-1.27
2022-12-24T23:35:15.401Z,-1.28
2022-12-24T23:40:18.319Z,-1.30
2022-12-24T23:45:21.034Z,-1.32
2022-12-24T23:50:23.735Z,-1.25
2022-12-24T23:55:26.917Z,-1.16
